Time;durP1;ratioP1;P1;durP2;ratioP2;P2;SDS_P1;SDS_P2;PMS_P1;PMS_P2;Temp;Humidity;BMP_temperature;BMP_pressure;BME280_temperature;BME280_humidity;BME280_pressure;Samples;Min_cycle;Max_cycle;Signal;HPM_P1;HPM_P2
2023/05/30 00:01:20;;;;;;;14.98;4.25;;;11.70;99.90;;;;;;5030228;28;20052;-69
2023/05/30 00:03:46;;;;;;;13.55;3.60;;;;;;;;;;5031128;28;20113;-68
2023/05/30 00:06:16;;;;;;;14.73;3.00;;;11.80;99.90;;;;;;5031500;28;20044;-68
2023/05/30 00:08:43;;;;;;;10.65;3.50;;;11.80;99.90;;;;;;5031259;28;20088;-68
2023/05/30 00:11:13;;;;;;;12.93;3.15;;;11.80;99.90;;;;;;5030496;28;20720;-68
2023/05/30 00:13:42;;;;;;;12.02;3.28;;;12.00;99.90;;;;;;5029694;28;20049;-68
2023/05/30 00:16:08;;;;;;;16.23;4.25;;;11.90;99.90;;;;;;5030164;28;20049;-68
2023/05/30 00:18:35;;;;;;;11.02;3.15;;;11.90;99.90;;;;;;5029833;28;20052;-68
2023/05/30 00:21:03;;;;;;;11.10;3.50;;;11.80;99.90;;;;;;5030132;28;20042;-68
2023/05/30 00:23:30;;;;;;;11.30;3.60;;;;;;;;;;5029540;28;20128;-68
2023/05/30 00:25:56;;;;;;;14.00;3.75;;;11.90;99.90;;;;;;5030574;28;20042;-68
2023/05/30 00:28:22;;;;;;;9.88;3.75;;;11.90;99.90;;;;;;5030264;28;20044;-68
2023/05/30 00:30:48;;;;;;;14.35;4.22;;;12.10;99.90;;;;;;5032333;28;20053;-68
2023/05/30 00:33:14;;;;;;;16.10;4.07;;;11.80;99.90;;;;;;5034720;28;20064;-68
2023/05/30 00:35:40;;;;;;;15.88;4.88;;;;;;;;;;5033957;28;20073;-68
2023/05/30 00:38:06;;;;;;;16.52;4.03;;;11.90;99.90;;;;;;5033728;28;20045;-68
2023/05/30 00:40:32;;;;;;;8.77;3.65;;;11.80;99.90;;;;;;5035381;28;20037;-68
2023/05/30 00:42:57;;;;;;;11.10;3.95;;;11.90;99.90;;;;;;5033451;28;20397;-68
2023/05/30 00:45:23;;;;;;;13.10;3.97;;;;;;;;;;5034100;28;20054;-68
2023/05/30 00:47:51;;;;;;;11.73;3.83;;;11.80;99.90;;;;;;5033625;28;20041;-68
2023/05/30 00:50:18;;;;;;;9.10;3.30;;;;;;;;;;5033679;28;20045;-68
2023/05/30 00:52:45;;;;;;;10.15;3.50;;;11.80;99.90;;;;;;5033858;28;20080;-68
2023/05/30 00:55:11;;;;;;;15.60;4.57;;;;;;;;;;5033701;28;20095;-68
2023/05/30 00:57:37;;;;;;;13.85;3.67;;;;;;;;;;5034669;28;20045;-68
2023/05/30 01:00:04;;;;;;;14.82;3.95;;;11.70;99.90;;;;;;5033786;28;20476;-68
2023/05/30 01:02:33;;;;;;;12.50;3.63;;;11.90;99.90;;;;;;5033783;28;20041;-68
2023/05/30 01:04:59;;;;;;;14.30;4.38;;;11.90;99.90;;;;;;5034356;28;20501;-68
2023/05/30 01:07:25;;;;;;;13.70;3.63;;;11.80;99.90;;;;;;5033154;28;20081;-68
2023/05/30 01:09:52;;;;;;;21.88;5.25;;;;;;;;;;5034772;28;20042;-68
2023/05/30 01:12:38;;;;;;;8.77;4.03;;;11.60;99.90;;;;;;5034639;28;20041;-68
2023/05/30 01:15:30;;;;;;;11.93;4.63;;;11.80;99.90;;;;;;5034067;28;20564;-68
2023/05/30 01:18:31;;;;;;;12.38;4.07;;;11.70;99.90;;;;;;5033038;28;20042;-68
2023/05/30 01:21:07;;;;;;;12.57;3.75;;;11.80;99.90;;;;;;5034589;28;20038;-68
2023/05/30 01:23:49;;;;;;;14.70;4.10;;;11.90;99.90;;;;;;5033793;28;20037;-68
2023/05/30 01:26:20;;;;;;;12.80;3.58;;;11.70;99.90;;;;;;5016679;28;20029;-68
2023/05/30 01:28:48;;;;;;;12.73;5.10;;;11.70;99.90;;;;;;5034116;28;20548;-68
2023/05/30 01:31:15;;;;;;;13.00;3.60;;;11.90;99.90;;;;;;5033062;28;20034;-68
2023/05/30 01:33:43;;;;;;;9.95;4.25;;;11.80;99.90;;;;;;5032404;28;20120;-68
2023/05/30 01:36:10;;;;;;;12.90;3.55;;;12.00;99.90;;;;;;5016509;28;20077;-68
2023/05/30 01:38:37;;;;;;;11.30;3.08;;;11.80;99.90;;;;;;5032631;28;20409;-68
2023/05/30 01:41:07;;;;;;;6.72;3.20;;;11.80;99.90;;;;;;5016560;28;20073;-68
2023/05/30 01:43:59;;;;;;;11.85;3.05;;;11.90;99.90;;;;;;5033393;28;20044;-68
2023/05/30 01:46:39;;;;;;;15.23;4.10;;;11.60;99.90;;;;;;5032833;28;20041;-68
2023/05/30 01:49:32;;;;;;;10.90;4.20;;;11.90;99.90;;;;;;5032708;28;20516;-68
2023/05/30 01:52:02;;;;;;;10.13;3.65;;;11.80;99.90;;;;;;5032626;28;20055;-68
2023/05/30 01:54:30;;;;;;;9.18;3.50;;;11.80;99.90;;;;;;5032246;28;20103;-68
2023/05/30 01:57:08;;;;;;;6.75;3.28;;;11.70;99.90;;;;;;5015633;28;20076;-68
2023/05/30 01:59:34;;;;;;;13.40;3.72;;;11.80;99.90;;;;;;5032803;28;20041;-68
2023/05/30 02:02:02;;;;;;;13.60;3.25;;;11.90;99.90;;;;;;5032667;28;20466;-68
2023/05/30 02:04:28;;;;;;;12.88;3.83;;;;;;;;;;5031755;28;20225;-68
2023/05/30 02:06:54;;;;;;;11.18;3.45;;;11.80;99.90;;;;;;5032479;28;20306;-68
2023/05/30 02:09:19;;;;;;;12.10;3.67;;;11.90;99.90;;;;;;5032265;28;20124;-68
2023/05/30 02:11:45;;;;;;;8.65;3.30;;;11.70;99.90;;;;;;5033393;28;20076;-68
2023/05/30 02:14:11;;;;;;;16.27;5.20;;;;;;;;;;5033114;28;20037;-68
2023/05/30 02:16:37;;;;;;;11.00;3.65;;;;;;;;;;5015739;28;20033;-67
2023/05/30 02:19:02;;;;;;;11.20;3.45;;;11.80;99.90;;;;;;5033389;28;20087;-68
2023/05/30 02:21:28;;;;;;;10.52;2.97;;;;;;;;;;5015873;28;20043;-68
2023/05/30 02:23:55;;;;;;;13.77;4.07;;;;;;;;;;5031376;28;20042;-68
2023/05/30 02:26:20;;;;;;;12.27;3.67;;;11.90;99.90;;;;;;5031990;28;20044;-68
2023/05/30 02:28:46;;;;;;;12.77;4.20;;;12.10;99.90;;;;;;5033175;28;20045;-68
2023/05/30 02:31:12;;;;;;;16.83;3.75;;;11.90;99.90;;;;;;5031901;28;20064;-68
2023/05/30 02:33:38;;;;;;;13.65;3.90;;;;;;;;;;5031562;28;20076;-68
2023/05/30 02:36:04;;;;;;;12.48;3.60;;;;;;;;;;5031814;28;20041;-68
2023/05/30 02:38:30;;;;;;;13.13;3.40;;;12.00;99.90;;;;;;5031337;28;20069;-67
2023/05/30 02:40:56;;;;;;;12.60;3.92;;;;;;;;;;5033117;28;20041;-68
2023/05/30 02:43:22;;;;;;;14.88;4.38;;;12.00;99.90;;;;;;5031210;28;20088;-68
2023/05/30 02:45:47;;;;;;;14.32;3.88;;;11.70;99.90;;;;;;5033074;28;20037;-68
2023/05/30 02:48:13;;;;;;;14.95;4.70;;;11.90;99.90;;;;;;5031375;28;20042;-68
2023/05/30 02:50:39;;;;;;;10.43;3.95;;;11.90;99.90;;;;;;5032820;28;20042;-68
2023/05/30 02:53:05;;;;;;;14.63;4.63;;;;;;;;;;5030266;28;20493;-68
2023/05/30 02:55:31;;;;;;;14.70;3.70;;;11.90;99.90;;;;;;5032661;28;20045;-67
2023/05/30 02:57:57;;;;;;;14.20;3.83;;;11.90;99.90;;;;;;5032681;28;20410;-67
2023/05/30 03:00:23;;;;;;;18.73;5.15;;;;;;;;;;5031681;28;20045;-68
2023/05/30 03:02:49;;;;;;;13.75;4.05;;;;;;;;;;5030898;28;20099;-67
2023/05/30 03:05:16;;;;;;;17.55;4.38;;;11.80;99.90;;;;;;5031192;28;20084;-68
2023/05/30 03:07:42;;;;;;;18.77;5.45;;;11.90;99.90;;;;;;5030930;28;20052;-68
2023/05/30 03:10:08;;;;;;;15.05;4.40;;;12.00;99.90;;;;;;5031167;28;20045;-68
2023/05/30 03:12:34;;;;;;;16.27;5.57;;;11.90;99.90;;;;;;5030982;28;20085;-68
2023/05/30 03:15:00;;;;;;;15.18;4.85;;;;;;;;;;5030833;28;20083;-67
2023/05/30 03:17:26;;;;;;;16.08;4.90;;;;;;;;;;5030784;28;20048;-68
2023/05/30 03:19:52;;;;;;;14.50;4.63;;;11.80;99.90;;;;;;5032310;28;20037;-68
2023/05/30 03:22:18;;;;;;;12.48;4.47;;;;;;;;;;5030959;28;20042;-68
2023/05/30 03:24:44;;;;;;;14.40;4.20;;;;;;;;;;5030425;28;20048;-68
2023/05/30 03:27:10;;;;;;;10.93;3.83;;;;;;;;;;5031868;28;20045;-67
2023/05/30 03:29:36;;;;;;;33.33;6.18;;;;;;;;;;5032255;28;20116;-68
2023/05/30 03:32:02;;;;;;;14.15;5.15;;;;;;;;;;5030872;28;20135;-67
2023/05/30 03:34:30;;;;;;;11.75;3.80;;;;;;;;;;5030430;28;20497;-68
2023/05/30 03:36:57;;;;;;;20.75;4.35;;;;;;;;;;5031153;28;20042;-68
2023/05/30 03:39:23;;;;;;;19.63;4.18;;;;;;;;;;5032906;28;20041;-68
2023/05/30 03:41:49;;;;;;;17.77;4.60;;;;;;;;;;5030662;28;20045;-68
2023/05/30 03:44:15;;;;;;;12.60;4.38;;;;;;;;;;5031863;28;20507;-67
2023/05/30 03:46:41;;;;;;;15.93;4.15;;;;;;;;;;5030400;28;20132;-67
2023/05/30 03:49:07;;;;;;;15.13;3.90;;;12.00;99.90;;;;;;5014172;28;20041;-68
2023/05/30 03:51:34;;;;;;;11.68;4.38;;;12.00;99.90;;;;;;5030101;28;20520;-68
2023/05/30 03:54:00;;;;;;;15.07;3.67;;;;;;;;;;5031365;28;20416;-68
2023/05/30 03:56:26;;;;;;;15.35;5.05;;;;;;;;;;5030261;28;20041;-67
2023/05/30 03:58:52;;;;;;;22.38;4.13;;;;;;;;;;5031545;28;20095;-68
2023/05/30 04:01:18;;;;;;;12.60;4.07;;;12.10;99.90;;;;;;5030425;28;20041;-68
2023/05/30 04:03:45;;;;;;;14.20;4.30;;;12.20;99.90;;;;;;5029765;28;20505;-68
2023/05/30 04:06:10;;;;;;;13.98;4.20;;;12.20;99.90;;;;;;5031333;28;20061;-68
2023/05/30 04:08:36;;;;;;;14.38;4.10;;;11.80;99.90;;;;;;5029952;28;20438;-68
2023/05/30 04:11:03;;;;;;;12.23;3.80;;;12.20;99.90;;;;;;5030219;28;20088;-68
2023/05/30 04:13:29;;;;;;;14.07;4.97;;;;;;;;;;5029712;28;20077;-68
2023/05/30 04:15:54;;;;;;;12.77;3.90;;;12.20;99.90;;;;;;5031576;28;20069;-68
2023/05/30 04:18:20;;;;;;;17.98;4.32;;;12.20;99.90;;;;;;5031228;28;20535;-68
2023/05/30 04:20:46;;;;;;;16.63;3.92;;;12.30;99.90;;;;;;5030143;28;20033;-68
2023/05/30 04:23:12;;;;;;;13.27;4.15;;;;;;;;;;5042927;28;20033;-68
2023/05/30 04:25:38;;;;;;;13.60;3.78;;;12.10;99.90;;;;;;5033194;28;20041;-68
2023/05/30 04:28:05;;;;;;;16.00;4.40;;;12.20;99.90;;;;;;5032745;28;20040;-68
2023/05/30 04:30:33;;;;;;;15.13;4.28;;;12.20;99.90;;;;;;5033369;28;20040;-68
2023/05/30 04:32:59;;;;;;;14.45;4.03;;;12.20;99.90;;;;;;5032724;28;20045;-68
2023/05/30 04:35:25;;;;;;;19.23;4.32;;;;;;;;;;5033530;28;20412;-68
2023/05/30 04:37:53;;;;;;;19.25;4.55;;;12.30;99.90;;;;;;5033034;28;20041;-68
2023/05/30 04:40:19;;;;;;;17.92;4.50;;;12.10;99.90;;;;;;5033489;28;20037;-68
2023/05/30 04:42:51;;;;;;;11.85;4.00;;;12.30;99.90;;;;;;5033306;28;20052;-68
2023/05/30 04:45:18;;;;;;;12.95;4.00;;;12.30;99.90;;;;;;5033481;28;20103;-68
2023/05/30 04:47:47;;;;;;;18.33;4.63;;;12.30;99.90;;;;;;5016579;28;20049;-68
2023/05/30 04:50:14;;;;;;;15.27;4.32;;;12.20;99.90;;;;;;5051168;28;20451;-68
2023/05/30 04:52:41;;;;;;;14.55;3.63;;;12.30;99.90;;;;;;5051053;28;20658;-68
2023/05/30 04:55:07;;;;;;;11.07;4.43;;;12.30;99.90;;;;;;5033030;28;20124;-68
2023/05/30 04:57:33;;;;;;;17.65;4.63;;;12.20;99.90;;;;;;5033291;28;20045;-68
2023/05/30 04:59:59;;;;;;;12.00;4.03;;;;;;;;;;5017003;28;20064;-68
2023/05/30 05:02:28;;;;;;;20.05;4.10;;;;;;;;;;5032982;28;20045;-68
2023/05/30 05:04:54;;;;;;;12.98;3.83;;;12.30;99.90;;;;;;5016281;28;20504;-68
2023/05/30 05:07:19;;;;;;;10.43;3.75;;;12.40;99.90;;;;;;5032846;28;20052;-68
2023/05/30 05:09:45;;;;;;;14.98;4.25;;;12.40;99.90;;;;;;5033292;28;20123;-68
2023/05/30 05:12:13;;;;;;;12.38;3.50;;;12.40;99.90;;;;;;5050844;28;20041;-68
2023/05/30 05:14:40;;;;;;;15.30;4.40;;;12.40;99.90;;;;;;5050357;28;20052;-68
2023/05/30 05:17:06;;;;;;;9.68;3.72;;;12.20;99.90;;;;;;5051424;28;20070;-68
2023/05/30 05:19:32;;;;;;;13.23;4.00;;;;;;;;;;5036460;28;20051;-68
2023/05/30 05:21:58;;;;;;;13.60;3.45;;;;;;;;;;5036454;28;20045;-68
2023/05/30 05:24:24;;;;;;;14.68;3.13;;;;;;;;;;5053860;28;20033;-67
2023/05/30 05:26:50;;;;;;;15.30;4.38;;;12.30;99.90;;;;;;5036237;28;20079;-68
2023/05/30 05:29:16;;;;;;;11.63;3.67;;;;;;;;;;5036498;28;20045;-68
2023/05/30 05:31:42;;;;;;;17.83;3.20;;;12.10;99.90;;;;;;5054459;28;20692;-68
2023/05/30 05:34:08;;;;;;;13.50;3.58;;;;;;;;;;5048022;28;20032;-67
2023/05/30 05:36:33;;;;;;;7.05;2.20;;;12.30;99.90;;;;;;5031811;28;20047;-68
2023/05/30 05:38:59;;;;;;;10.65;2.88;;;;;;;;;;5031641;28;20090;-67
2023/05/30 05:41:25;;;;;;;11.15;3.58;;;;;;;;;;5031949;28;20116;-67
2023/05/30 05:43:51;;;;;;;7.57;2.90;;;;;;;;;;5030979;28;20520;-67
2023/05/30 05:46:17;;;;;;;6.65;2.92;;;;;;;;;;5031508;28;20036;-67
2023/05/30 05:48:43;;;;;;;7.55;2.67;;;;;;;;;;5031557;28;20045;-68
2023/05/30 05:51:11;;;;;;;10.27;2.97;;;;;;;;;;5031553;28;20052;-68
2023/05/30 05:53:36;;;;;;;10.23;3.10;;;;;;;;;;5045892;28;20083;-68
2023/05/30 05:56:02;;;;;;;9.70;2.80;;;;;;;;;;5038672;28;20076;-68
2023/05/30 05:58:28;;;;;;;10.48;3.15;;;12.60;99.90;;;;;;5036286;28;20048;-68
2023/05/30 06:00:54;;;;;;;7.13;2.70;;;12.50;99.90;;;;;;5032794;28;20037;-69
2023/05/30 06:03:20;;;;;;;8.32;2.88;;;;;;;;;;5018078;28;20450;-68
2023/05/30 06:05:46;;;;;;;8.90;2.85;;;;;;;;;;5046983;28;20460;-69
2023/05/30 06:08:12;;;;;;;9.50;3.05;;;;;;;;;;5032461;28;20383;-68
2023/05/30 06:10:37;;;;;;;7.35;2.60;;;12.70;99.90;;;;;;5032340;28;20140;-68
2023/05/30 06:13:03;;;;;;;7.10;2.65;;;12.40;99.90;;;;;;5032132;28;20049;-69
2023/05/30 06:15:29;;;;;;;11.88;2.83;;;;;;;;;;5032431;28;20076;-68
2023/05/30 06:17:55;;;;;;;6.50;2.78;;;12.40;99.90;;;;;;5032217;28;20077;-68
2023/05/30 06:20:21;;;;;;;8.10;2.67;;;;;;;;;;5032635;28;20092;-68
2023/05/30 06:22:47;;;;;;;7.70;2.90;;;;;;;;;;5032102;28;20410;-68
2023/05/30 06:25:13;;;;;;;9.85;2.50;;;12.70;99.90;;;;;;5033363;28;20084;-68
2023/05/30 06:27:39;;;;;;;12.27;2.80;;;;;;;;;;5032050;28;20085;-68
2023/05/30 06:30:06;;;;;;;11.77;3.88;;;12.70;99.90;;;;;;5032299;28;20041;-68
2023/05/30 06:32:31;;;;;;;11.88;2.90;;;12.70;99.90;;;;;;5031745;28;20088;-68
2023/05/30 06:34:57;;;;;;;10.55;2.42;;;;;;;;;;5031551;28;20082;-68
2023/05/30 06:37:23;;;;;;;13.23;2.53;;;;;;;;;;5031507;28;20052;-68
2023/05/30 06:39:49;;;;;;;8.55;2.65;;;12.60;99.90;;;;;;5032080;28;20041;-68
2023/05/30 06:42:14;;;;;;;5.25;2.30;;;12.50;99.90;;;;;;5031465;28;20497;-68
2023/05/30 06:44:40;;;;;;;8.13;2.90;;;12.40;99.90;;;;;;5033084;28;20112;-68
2023/05/30 06:47:06;;;;;;;8.57;2.03;;;12.40;99.90;;;;;;5032979;28;20048;-68
2023/05/30 06:49:32;;;;;;;7.85;2.35;;;;;;;;;;5031978;28;20077;-68
2023/05/30 06:51:58;;;;;;;6.25;2.40;;;;;;;;;;5032761;28;20041;-68
2023/05/30 06:54:24;;;;;;;8.75;2.28;;;;;;;;;;5031038;28;20540;-68
2023/05/30 06:56:50;;;;;;;7.00;2.25;;;;;;;;;;5031366;28;20053;-68
2023/05/30 06:59:16;;;;;;;9.43;2.65;;;;;;;;;;5031498;28;20073;-69
2023/05/30 07:01:42;;;;;;;5.00;2.08;;;;;;;;;;5032701;28;20037;-68
2023/05/30 07:04:08;;;;;;;6.55;2.40;;;12.50;99.90;;;;;;5014351;28;20094;-68
2023/05/30 07:06:33;;;;;;;8.10;2.17;;;12.70;99.90;;;;;;5014694;28;20037;-68
2023/05/30 07:08:59;;;;;;;8.45;2.80;;;;;;;;;;5032491;28;20045;-68
2023/05/30 07:11:26;;;;;;;7.63;2.15;;;;;;;;;;5031376;28;20081;-69
2023/05/30 07:13:51;;;;;;;6.00;2.50;;;12.70;99.90;;;;;;5030579;28;20465;-68
2023/05/30 07:16:17;;;;;;;6.68;2.00;;;12.60;99.90;;;;;;5014695;28;20076;-68
2023/05/30 07:18:43;;;;;;;3.60;1.98;;;;;;;;;;5031072;28;20092;-69
2023/05/30 07:21:09;;;;;;;5.30;2.63;;;12.70;99.90;;;;;;5031208;28;20120;-68
2023/05/30 07:23:35;;;;;;;8.55;2.80;;;12.60;99.90;;;;;;5031973;28;20053;-68
2023/05/30 07:26:00;;;;;;;8.75;3.20;;;12.80;99.90;;;;;;5031200;28;20083;-68
2023/05/30 07:28:26;;;;;;;8.25;3.22;;;12.50;99.90;;;;;;5030915;28;20072;-68
2023/05/30 07:30:52;;;;;;;8.63;3.17;;;;;;;;;;5032530;28;20094;-68
2023/05/30 07:33:18;;;;;;;7.40;3.30;;;;;;;;;;5030775;28;20049;-68
2023/05/30 07:35:44;;;;;;;7.20;2.63;;;;;;;;;;5030999;28;20056;-68
2023/05/30 07:38:10;;;;;;;6.28;2.80;;;;;;;;;;5030830;28;20046;-68
2023/05/30 07:40:36;;;;;;;11.55;3.30;;;;;;;;;;5030292;28;20061;-69
2023/05/30 07:43:02;;;;;;;8.13;3.03;;;;;;;;;;5030189;28;20041;-68
2023/05/30 07:45:28;;;;;;;9.65;3.00;;;;;;;;;;5031210;28;20045;-68
2023/05/30 07:47:54;;;;;;;7.20;3.08;;;12.90;99.90;;;;;;5031085;28;20045;-68
2023/05/30 07:50:20;;;;;;;9.88;2.80;;;12.80;99.90;;;;;;5030990;28;20041;-68
2023/05/30 07:52:46;;;;;;;4.85;2.40;;;;;;;;;;5030886;28;20045;-68
2023/05/30 07:55:12;;;;;;;4.97;2.88;;;12.80;99.90;;;;;;5013585;28;20041;-68
2023/05/30 07:57:38;;;;;;;9.23;3.17;;;12.90;99.90;;;;;;5030264;28;20149;-68
2023/05/30 08:00:08;;;;;;;8.45;3.05;;;12.70;99.90;;;;;;5031102;28;20038;-69
2023/05/30 08:02:37;;;;;;;13.75;3.13;;;12.90;99.90;;;;;;5031457;28;20456;-68
2023/05/30 08:05:03;;;;;;;8.40;2.75;;;13.00;99.90;;;;;;5031793;28;20045;-69
2023/05/30 08:07:31;;;;;;;7.10;2.13;;;13.20;99.90;;;;;;5030784;28;20041;-68
2023/05/30 08:09:57;;;;;;;5.00;2.22;;;13.10;99.90;;;;;;5031651;28;20041;-68
2023/05/30 08:12:28;;;;;;;5.82;2.47;;;13.20;99.90;;;;;;5030499;28;20516;-68
2023/05/30 08:14:55;;;;;;;6.60;1.90;;;;;;;;;;5031216;28;20038;-68
2023/05/30 08:17:23;;;;;;;6.78;1.90;;;13.20;99.90;;;;;;5030157;28;20497;-68
2023/05/30 08:19:52;;;;;;;4.63;1.80;;;13.50;99.90;;;;;;5031735;28;20041;-69
2023/05/30 08:22:21;;;;;;;5.90;1.70;;;13.40;99.90;;;;;;5030373;28;20049;-68
2023/05/30 08:24:50;;;;;;;5.82;2.30;;;13.40;99.90;;;;;;5031549;28;20042;-68
2023/05/30 08:27:17;;;;;;;4.50;1.80;;;13.40;99.90;;;;;;5030262;28;20041;-68
2023/05/30 08:29:43;;;;;;;6.72;2.00;;;13.30;99.90;;;;;;5031454;28;20527;-68
2023/05/30 08:32:09;;;;;;;4.38;1.40;;;;;;;;;;5030064;28;20521;-68
2023/05/30 08:34:36;;;;;;;4.47;2.30;;;13.30;99.90;;;;;;5030928;28;20046;-69
2023/05/30 08:37:02;;;;;;;4.55;2.28;;;13.20;99.90;;;;;;5030984;28;20135;-68
2023/05/30 08:39:28;;;;;;;6.10;2.78;;;13.30;99.90;;;;;;5031483;28;20501;-68
2023/05/30 08:41:53;;;;;;;6.35;2.88;;;13.50;99.90;;;;;;5030123;28;20065;-68
2023/05/30 08:44:19;;;;;;;5.90;2.55;;;;;;;;;;5030729;28;20045;-68
2023/05/30 08:46:45;;;;;;;4.38;1.85;;;;;;;;;;5031121;28;20117;-68
2023/05/30 08:49:20;;;;;;;4.25;1.83;;;13.80;99.90;;;;;;5030165;28;20520;-68
2023/05/30 08:51:46;;;;;;;2.42;1.70;;;;;;;;;;5030299;28;20057;-68
2023/05/30 08:54:36;;;;;;;4.00;1.70;;;13.80;99.90;;;;;;5033175;28;20131;-68
2023/05/30 08:57:09;;;;;;;2.90;1.65;;;13.80;99.90;;;;;;5017361;28;20507;-68
2023/05/30 08:59:35;;;;;;;1.75;1.27;;;14.20;99.90;;;;;;5033815;28;20117;-69
2023/05/30 09:02:02;;;;;;;2.03;1.23;;;14.20;99.90;;;;;;5034669;28;20034;-68
2023/05/30 09:04:29;;;;;;;2.03;1.30;;;14.10;99.90;;;;;;5034540;28;20037;-68
2023/05/30 09:06:57;;;;;;;3.05;1.02;;;14.40;99.90;;;;;;5033604;28;20397;-69
2023/05/30 09:09:23;;;;;;;2.03;1.20;;;;;;;;;;5033489;28;20045;-68
2023/05/30 09:11:51;;;;;;;1.48;0.90;;;14.50;99.90;;;;;;5034761;28;20056;-68
2023/05/30 09:14:17;;;;;;;0.70;0.70;;;;;;;;;;5034112;28;20496;-68
2023/05/30 09:16:43;;;;;;;1.00;0.70;;;14.10;99.90;;;;;;5034513;28;20119;-68
2023/05/30 09:19:08;;;;;;;1.75;0.80;;;14.20;99.90;;;;;;5033560;28;20041;-68
2023/05/30 09:21:35;;;;;;;2.53;1.55;;;;;;;;;;5016752;28;20037;-68
2023/05/30 09:24:05;;;;;;;3.53;1.55;;;14.50;99.90;;;;;;5032790;28;20471;-69
2023/05/30 09:26:32;;;;;;;1.58;1.00;;;14.50;99.90;;;;;;5032952;28;20064;-68
2023/05/30 09:29:08;;;;;;;2.05;1.10;;;14.40;99.90;;;;;;5034329;28;20057;-68
2023/05/30 09:31:35;;;;;;;5.00;1.17;;;14.60;99.90;;;;;;5033703;28;20060;-68
2023/05/30 09:34:01;;;;;;;2.28;1.35;;;14.50;99.90;;;;;;5034001;28;20497;-69
2023/05/30 09:36:28;;;;;;;1.83;1.15;;;14.40;99.90;;;;;;5032814;28;20048;-68
2023/05/30 09:39:04;;;;;;;1.42;0.60;;;14.40;99.90;;;;;;5032902;28;20099;-69
2023/05/30 09:41:29;;;;;;;2.13;0.80;;;14.50;99.90;;;;;;5032868;28;20493;-68
2023/05/30 09:43:56;;;;;;;3.80;1.05;;;14.50;99.90;;;;;;5034030;28;20033;-68
2023/05/30 09:46:27;;;;;;;4.22;0.80;;;14.30;99.90;;;;;;5033017;28;20072;-68
2023/05/30 09:48:53;;;;;;;1.15;0.80;;;14.10;99.90;;;;;;5032943;28;20668;-68
2023/05/30 09:51:23;;;;;;;2.58;0.90;;;13.80;99.90;;;;;;5032862;28;20037;-69
2023/05/30 09:54:03;;;;;;;2.58;0.90;;;13.80;99.90;;;;;;5032094;28;20464;-68
2023/05/30 09:56:51;;;;;;;2.35;0.77;;;13.90;99.90;;;;;;5033760;28;20038;-68
2023/05/30 09:59:17;;;;;;;3.40;0.98;;;;;;;;;;5032505;28;20048;-68
2023/05/30 10:01:45;;;;;;;1.67;1.00;;;14.00;99.90;;;;;;5032489;28;20409;-68
2023/05/30 10:04:14;;;;;;;2.13;0.95;;;14.10;99.90;;;;;;5031683;28;20543;-68
2023/05/30 10:06:42;;;;;;;2.67;1.00;;;14.20;99.90;;;;;;5033754;28;20060;-68
2023/05/30 10:09:09;;;;;;;1.92;1.15;;;14.10;99.90;;;;;;5033811;28;20041;-68
2023/05/30 10:11:36;;;;;;;2.47;1.00;;;14.30;99.90;;;;;;5032325;28;20041;-68
2023/05/30 10:14:01;;;;;;;1.90;0.80;;;14.10;99.90;;;;;;5031979;28;20412;-68
2023/05/30 10:16:30;;;;;;;1.80;1.00;;;13.90;99.90;;;;;;5032054;28;20045;-68
2023/05/30 10:19:01;;;;;;;2.45;1.00;;;14.10;99.90;;;;;;5032000;28;20571;-68
2023/05/30 10:21:29;;;;;;;1.80;0.95;;;14.00;99.90;;;;;;5015716;28;20037;-69
2023/05/30 10:23:55;;;;;;;1.25;0.88;;;13.40;99.90;;;;;;5031511;28;20041;-68
2023/05/30 10:26:29;;;;;;;3.05;1.17;;;13.30;99.90;;;;;;5033514;28;20041;-68
2023/05/30 10:28:56;;;;;;;2.97;1.13;;;13.40;99.90;;;;;;5033424;28;20152;-68
2023/05/30 10:31:24;;;;;;;3.15;1.60;;;13.40;99.90;;;;;;5032120;28;20512;-68
2023/05/30 10:33:51;;;;;;;4.25;1.27;;;;;;;;;;5031311;28;20076;-67
2023/05/30 10:36:17;;;;;;;2.20;1.25;;;13.30;99.90;;;;;;5015542;28;20111;-67
2023/05/30 10:38:59;;;;;;;4.55;1.30;;;13.70;99.90;;;;;;5031651;28;20045;-67
2023/05/30 10:41:38;;;;;;;3.28;0.98;;;13.60;99.90;;;;;;5031861;28;20087;-67
2023/05/30 10:44:38;;;;;;;2.25;1.38;;;13.60;99.90;;;;;;5031104;28;20047;-67
2023/05/30 10:47:25;;;;;;;2.00;1.15;;;14.00;99.90;;;;;;5032761;28;20048;-67
2023/05/30 10:49:54;;;;;;;4.03;1.20;;;14.00;99.90;;;;;;5032912;28;20600;-67
2023/05/30 10:52:30;;;;;;;5.03;1.50;;;14.20;99.90;;;;;;5031348;28;20505;-67
2023/05/30 10:54:56;;;;;;;4.15;1.67;;;;;;;;;;5031162;28;20045;-67
2023/05/30 10:57:23;;;;;;;3.65;1.10;;;14.50;99.90;;;;;;5031326;28;20042;-68
2023/05/30 10:59:49;;;;;;;4.82;1.27;;;14.60;99.90;;;;;;5031367;28;20041;-67
2023/05/30 11:02:20;;;;;;;1.77;1.38;;;;;;;;;;5031268;28;20037;-68
2023/05/30 11:04:51;;;;;;;3.78;1.35;;;14.20;99.90;;;;;;5031048;28;20094;-67
2023/05/30 11:07:17;;;;;;;2.42;1.10;;;14.40;99.90;;;;;;5031222;28;20033;-67
2023/05/30 11:10:03;;;;;;;2.15;1.05;;;14.40;99.90;;;;;;5032462;28;20124;-67
2023/05/30 11:12:29;;;;;;;1.33;1.13;;;14.10;99.90;;;;;;5032363;28;20037;-67
2023/05/30 11:14:57;;;;;;;2.38;1.38;;;14.40;99.90;;;;;;5029772;28;20057;-68
2023/05/30 11:17:33;;;;;;;3.42;1.10;;;14.50;99.90;;;;;;5030498;28;20041;-67
2023/05/30 11:20:14;;;;;;;4.88;1.67;;;14.40;99.90;;;;;;5031262;28;20128;-67
2023/05/30 11:22:41;;;;;;;3.20;1.50;;;14.50;99.90;;;;;;5014643;28;20489;-68
2023/05/30 11:25:17;;;;;;;2.95;1.13;;;14.90;99.90;;;;;;5030734;28;20052;-68
2023/05/30 11:28:06;;;;;;;2.70;1.40;;;14.80;99.90;;;;;;5014211;28;20124;-68
2023/05/30 11:30:37;;;;;;;4.57;1.40;;;14.70;99.90;;;;;;5032281;28;20136;-68
2023/05/30 11:33:12;;;;;;;2.03;1.50;;;14.50;99.90;;;;;;5031853;28;20124;-68
2023/05/30 11:35:38;;;;;;;2.45;1.48;;;14.80;99.90;;;;;;5032567;28;20037;-68
2023/05/30 11:38:06;;;;;;;1.75;1.20;;;14.90;99.90;;;;;;5030509;28;20041;-68
2023/05/30 11:40:32;;;;;;;3.28;1.30;;;;;;;;;;5030912;28;20084;-68
2023/05/30 11:42:58;;;;;;;3.72;1.10;;;;;;;;;;5030249;28;20460;-68
2023/05/30 11:45:29;;;;;;;2.90;1.30;;;14.70;99.90;;;;;;5031911;28;20041;-68
2023/05/30 11:48:08;;;;;;;1.10;1.00;;;14.80;99.90;;;;;;5030528;28;20069;-68
2023/05/30 11:50:41;;;;;;;1.42;1.00;;;14.50;99.90;;;;;;5031808;28;20104;-69
2023/05/30 11:53:12;;;;;;;2.45;1.27;;;14.70;99.90;;;;;;5030088;28;20052;-68
2023/05/30 11:55:37;;;;;;;1.20;1.10;;;15.10;99.90;;;;;;5030588;28;20041;-68
2023/05/30 11:58:04;;;;;;;1.77;1.13;;;14.90;99.90;;;;;;5030301;28;20053;-68
2023/05/30 12:00:31;;;;;;;1.50;1.13;;;15.10;99.90;;;;;;5030384;28;20570;-68
2023/05/30 12:02:57;;;;;;;3.10;1.33;;;;;;;;;;5030132;28;20037;-68
2023/05/30 12:05:22;;;;;;;2.55;1.38;;;15.70;99.90;;;;;;5030548;28;20044;-68
2023/05/30 12:07:52;;;;;;;3.65;1.48;;;15.40;99.90;;;;;;5030190;28;20042;-68
2023/05/30 12:10:29;;;;;;;4.63;1.23;;;15.50;99.90;;;;;;5030346;28;20048;-68
2023/05/30 12:12:55;;;;;;;1.50;1.05;;;15.90;99.90;;;;;;5031117;28;20041;-68
2023/05/30 12:15:20;;;;;;;1.40;1.10;;;15.90;99.90;;;;;;5030348;28;20037;-68
2023/05/30 12:17:46;;;;;;;1.40;1.30;;;16.00;99.90;;;;;;5031181;28;20501;-68
2023/05/30 12:20:16;;;;;;;1.92;1.20;;;16.00;99.90;;;;;;5030246;28;20394;-68
2023/05/30 12:22:43;;;;;;;2.33;1.40;;;16.30;99.90;;;;;;5030109;28;20530;-68
2023/05/30 12:25:10;;;;;;;2.28;1.10;;;15.80;99.90;;;;;;5029988;28;20166;-68
2023/05/30 12:27:40;;;;;;;1.63;1.10;;;15.50;99.90;;;;;;5035069;28;20077;-68
2023/05/30 12:30:18;;;;;;;1.77;0.80;;;15.40;99.90;;;;;;5018107;28;20087;-68
2023/05/30 12:32:45;;;;;;;0.80;0.80;;;15.60;99.90;;;;;;5035517;28;20041;-68
2023/05/30 12:35:12;;;;;;;1.17;1.00;;;15.50;99.90;;;;;;5034159;28;20045;-68
2023/05/30 12:37:38;;;;;;;4.90;1.08;;;15.60;99.90;;;;;;5035170;28;20042;-68
2023/05/30 12:40:05;;;;;;;2.15;1.10;;;15.70;99.90;;;;;;5034106;28;20045;-68
2023/05/30 12:42:32;;;;;;;1.17;1.08;;;15.50;99.90;;;;;;5035000;28;20045;-68
2023/05/30 12:45:03;;;;;;;1.75;1.10;;;15.50;99.90;;;;;;5033555;28;20099;-68
2023/05/30 12:47:29;;;;;;;2.75;1.42;;;15.70;99.90;;;;;;5033831;28;20088;-68
2023/05/30 12:49:56;;;;;;;2.47;1.30;;;15.80;99.90;;;;;;5017433;28;20048;-68
2023/05/30 12:52:24;;;;;;;1.85;1.30;;;15.90;99.90;;;;;;5017442;28;20073;-68
2023/05/30 12:54:50;;;;;;;2.42;1.25;;;16.40;99.90;;;;;;5034953;28;20476;-68
2023/05/30 12:57:24;;;;;;;1.27;1.17;;;15.90;99.90;;;;;;5033667;28;20088;-68
2023/05/30 12:59:50;;;;;;;1.35;1.02;;;16.30;99.90;;;;;;5033759;28;20041;-68
2023/05/30 13:02:16;;;;;;;1.85;1.10;;;;;;;;;;5034983;28;20045;-68
2023/05/30 13:04:42;;;;;;;3.15;0.93;;;;;;;;;;5034570;28;20042;-68
2023/05/30 13:07:09;;;;;;;1.70;0.80;;;15.90;99.90;;;;;;5033594;28;20042;-67
2023/05/30 13:09:36;;;;;;;1.10;0.93;;;15.80;99.90;;;;;;5017057;28;20033;-68
2023/05/30 13:12:03;;;;;;;2.10;1.27;;;16.10;99.90;;;;;;5033289;28;20038;-68
2023/05/30 13:14:30;;;;;;;2.90;1.20;;;16.00;99.90;;;;;;5016697;28;20046;-68
2023/05/30 13:16:56;;;;;;;3.35;1.30;;;15.60;99.90;;;;;;5034608;28;20041;-70